Time,TemperatureF,DewpointF,PressureIn,WindDirection,WindDirectionDegrees,WindSpeedMPH,WindSpeedGustMPH,Humidity,HourlyPrecipIn,Conditions,Clouds,dailyrainin,SoftwareType,DateUTC
2013-11-22 00:11:00,24.8,22.0,30.39,NNE,20,1.0,-999.0,88,-99.99,,,0.00,weatherlink.com 1.10,2013-11-22 06:11:00,
2013-11-22 00:26:00,24.4,21.0,30.39,NE,43,4.0,-999.0,88,-99.99,,,0.00,weatherlink.com 1.10,2013-11-22 06:26:00,
2013-11-22 00:41:00,24.1,21.0,30.40,North,5,1.0,-999.0,89,-99.99,,,0.00,weatherlink.com 1.10,2013-11-22 06:41:00,
2013-11-22 00:56:00,23.8,21.0,30.41,North,355,3.0,-999.0,90,-99.99,,,0.00,weatherlink.com 1.10,2013-11-22 06:56:00,
2013-11-22 01:11:00,23.6,21.0,30.41,North,11,3.0,-999.0,90,-99.99,,,0.00,weatherlink.com 1.10,2013-11-22 07:11:00,
2013-11-22 01:26:00,23.5,21.0,30.41,North,360,2.0,-999.0,91,-99.99,,,0.00,weatherlink.com 1.10,2013-11-22 07:26:00,
2013-11-22 01:41:00,23.3,21.0,30.42,North,5,4.0,-999.0,91,-99.99,,,0.00,weatherlink.com 1.10,2013-11-22 07:41:00,
2013-11-22 01:56:00,23.2,21.0,30.43,NNE,14,2.0,-999.0,91,-99.99,,,0.00,weatherlink.com 1.10,2013-11-22 07:56:00,
2013-11-22 02:11:00,23.2,21.0,30.43,NNE,24,2.0,-999.0,90,-99.99,,,0.00,weatherlink.com 1.10,2013-11-22 08:11:00,
2013-11-22 02:26:00,23.0,21.0,30.44,NNE,30,3.0,-999.0,90,-99.99,,,0.00,weatherlink.com 1.10,2013-11-22 08:26:00,
2013-11-22 02:41:00,23.0,21.0,30.44,NW,311,0.0,-999.0,90,-99.99,,,0.00,weatherlink.com 1.10,2013-11-22 08:41:00,
2013-11-22 02:56:00,23.0,21.0,30.44,North,355,0.0,-999.0,90,-99.99,,,0.00,weatherlink.com 1.10,2013-11-22 08:56:00,
2013-11-22 03:12:00,22.9,20.0,30.44,North,355,0.0,-999.0,89,-99.99,,,0.00,weatherlink.com 1.10,2013-11-22 09:12:00,
2013-11-22 03:27:00,22.9,20.0,30.44,SSE,152,0.0,-999.0,88,-99.99,,,0.00,weatherlink.com 1.10,2013-11-22 09:27:00,
2013-11-22 03:42:00,22.5,19.0,30.43,NNE,15,0.0,-999.0,86,-99.99,,,0.00,weatherlink.com 1.10,2013-11-22 09:42:00,
2013-11-22 03:57:00,22.4,19.0,30.43,NNE,23,0.0,-999.0,85,-99.99,,,0.00,weatherlink.com 1.10,2013-11-22 09:57:00,
2013-11-22 04:12:00,22.2,18.0,30.43,NNE,30,2.0,-999.0,84,-99.99,,,0.00,weatherlink.com 1.10,2013-11-22 10:12:00,
2013-11-22 04:27:00,22.2,18.0,30.45,North,355,2.0,-999.0,82,-99.99,,,0.00,weatherlink.com 1.10,2013-11-22 10:27:00,
2013-11-22 04:42:00,22.2,17.0,30.45,NE,41,0.0,-999.0,80,-99.99,,,0.00,weatherlink.com 1.10,2013-11-22 10:42:00,
2013-11-22 04:57:00,22.2,17.0,30.45,North,360,2.0,-999.0,80,-99.99,,,0.00,weatherlink.com 1.10,2013-11-22 10:57:00,
2013-11-22 05:12:00,22.1,17.0,30.45,NNE,21,1.0,-999.0,79,-99.99,,,0.00,weatherlink.com 1.10,2013-11-22 11:12:00,
2013-11-22 05:27:00,21.9,16.0,30.45,NNE,12,0.0,-999.0,79,-99.99,,,0.00,weatherlink.com 1.10,2013-11-22 11:27:00,
2013-11-22 05:42:00,21.8,17.0,30.47,NNE,12,0.0,-999.0,80,-99.99,,,0.00,weatherlink.com 1.10,2013-11-22 11:42:00,
2013-11-22 05:57:00,21.4,16.0,30.47,NW,325,0.0,-999.0,79,-99.99,,,0.00,weatherlink.com 1.10,2013-11-22 11:57:00,
2013-11-22 06:12:00,21.0,15.0,30.48,NNW,335,0.0,-999.0,79,-99.99,,,0.00,weatherlink.com 1.10,2013-11-22 12:12:00,
2013-11-22 06:27:00,20.3,15.0,30.49,NNW,335,0.0,-999.0,79,-99.99,,,0.00,weatherlink.com 1.10,2013-11-22 12:27:00,
2013-11-22 06:42:00,19.5,14.0,30.50,NNW,335,0.0,-999.0,78,-99.99,,,0.00,weatherlink.com 1.10,2013-11-22 12:42:00,
2013-11-22 06:57:00,18.8,14.0,30.50,NNW,336,0.0,-999.0,80,-99.99,,,0.00,weatherlink.com 1.10,2013-11-22 12:57:00,
2013-11-22 07:13:00,18.3,13.0,30.51,NNW,336,0.0,-999.0,81,-99.99,,,0.00,weatherlink.com 1.10,2013-11-22 13:13:00,
2013-11-22 07:28:00,17.8,13.0,30.49,NNW,336,0.0,-999.0,81,-99.99,,,0.00,weatherlink.com 1.10,2013-11-22 13:28:00,
2013-11-22 07:43:00,17.2,12.0,30.50,NNW,336,0.0,-999.0,81,-99.99,,,0.00,weatherlink.com 1.10,2013-11-22 13:43:00,
2013-11-22 07:58:00,16.9,12.0,30.51,NNW,336,0.0,-999.0,82,-99.99,,,0.00,weatherlink.com 1.10,2013-11-22 13:58:00,
2013-11-22 08:13:00,16.5,12.0,30.51,NNW,336,0.0,-999.0,83,-99.99,,,0.00,weatherlink.com 1.10,2013-11-22 14:13:00,
2013-11-22 08:28:00,16.7,13.0,30.51,NNW,333,0.0,-999.0,84,-99.99,,,0.00,weatherlink.com 1.10,2013-11-22 14:28:00,
2013-11-22 08:43:00,17.3,13.0,30.51,WSW,257,1.0,-999.0,84,-99.99,,,0.00,weatherlink.com 1.10,2013-11-22 14:43:00,
2013-11-22 08:58:00,18.0,14.0,30.50,WNW,292,2.0,-999.0,83,-99.99,,,0.00,weatherlink.com 1.10,2013-11-22 14:58:00,
2013-11-22 09:13:00,18.6,14.0,30.50,North,9,3.0,-999.0,81,-99.99,,,0.00,weatherlink.com 1.10,2013-11-22 15:13:00,
2013-11-22 09:28:00,19.2,14.0,30.51,NNE,14,0.0,-999.0,80,-99.99,,,0.00,weatherlink.com 1.10,2013-11-22 15:28:00,
2013-11-22 09:43:00,19.7,14.0,30.52,North,5,1.0,-999.0,78,-99.99,,,0.00,weatherlink.com 1.10,2013-11-22 15:43:00,
2013-11-22 09:58:00,21.0,15.0,30.52,NE,46,1.0,-999.0,77,-99.99,,,0.00,weatherlink.com 1.10,2013-11-22 15:58:00,
2013-11-22 10:13:00,22.2,15.0,30.52,WNW,291,1.0,-999.0,75,-99.99,,,0.00,weatherlink.com 1.10,2013-11-22 16:13:00,
2013-11-22 10:28:00,23.8,16.0,30.52,NNE,32,0.0,-999.0,73,-99.99,,,0.00,weatherlink.com 1.10,2013-11-22 16:28:00,
2013-11-22 10:43:00,25.3,17.0,30.52,West,279,0.0,-999.0,71,-99.99,,,0.00,weatherlink.com 1.10,2013-11-22 16:43:00,
2013-11-22 10:58:00,26.3,17.0,30.51,WNW,285,0.0,-999.0,69,-99.99,,,0.00,weatherlink.com 1.10,2013-11-22 16:58:00,
2013-11-22 11:13:00,27.0,17.0,30.50,WSW,241,1.0,-999.0,66,-99.99,,,0.00,weatherlink.com 1.10,2013-11-22 17:13:00,
2013-11-22 11:28:00,26.9,17.0,30.50,WSW,244,4.0,-999.0,65,-99.99,,,0.00,weatherlink.com 1.10,2013-11-22 17:28:00,
2013-11-22 11:43:00,26.7,16.0,30.48,NNE,15,2.0,-999.0,65,-99.99,,,0.00,weatherlink.com 1.10,2013-11-22 17:43:00,
2013-11-22 11:58:00,27.0,15.0,30.47,West,273,1.0,-999.0,62,-99.99,,,0.00,weatherlink.com 1.10,2013-11-22 17:58:00,
2013-11-22 12:13:00,27.2,16.0,30.47,SW,225,1.0,-999.0,62,-99.99,,,0.00,weatherlink.com 1.10,2013-11-22 18:13:00,
2013-11-22 12:28:00,27.0,16.0,30.47,WNW,297,2.0,-999.0,63,-99.99,,,0.00,weatherlink.com 1.10,2013-11-22 18:28:00,
2013-11-22 12:43:00,27.0,15.0,30.47,WNW,284,2.0,-999.0,60,-99.99,,,0.00,weatherlink.com 1.10,2013-11-22 18:43:00,
2013-11-22 12:58:00,27.8,16.0,30.47,SW,215,1.0,-999.0,62,-99.99,,,0.00,weatherlink.com 1.10,2013-11-22 18:58:00,
2013-11-22 13:13:00,29.0,17.0,30.45,NNW,333,0.0,-999.0,60,-99.99,,,0.00,weatherlink.com 1.10,2013-11-22 19:13:00,
2013-11-22 13:28:00,29.8,15.0,30.45,West,271,5.0,-999.0,54,-99.99,,,0.00,weatherlink.com 1.10,2013-11-22 19:28:00,
2013-11-22 13:43:00,30.7,16.0,30.45,WSW,257,1.0,-999.0,55,-99.99,,,0.00,weatherlink.com 1.10,2013-11-22 19:43:00,
2013-11-22 13:58:00,31.5,15.0,30.44,WNW,288,0.0,-999.0,50,-99.99,,,0.00,weatherlink.com 1.10,2013-11-22 19:58:00,
2013-11-22 14:14:00,31.6,15.0,30.43,SW,233,0.0,-999.0,50,-99.99,,,0.00,weatherlink.com 1.10,2013-11-22 20:14:00,
2013-11-22 14:29:00,31.8,14.0,30.43,SSW,213,1.0,-999.0,48,-99.99,,,0.00,weatherlink.com 1.10,2013-11-22 20:29:00,
2013-11-22 14:44:00,31.8,13.0,30.42,SW,218,4.0,-999.0,46,-99.99,,,0.00,weatherlink.com 1.10,2013-11-22 20:44:00,
2013-11-22 14:59:00,31.0,13.0,30.42,SW,216,2.0,-999.0,47,-99.99,,,0.00,weatherlink.com 1.10,2013-11-22 20:59:00,
2013-11-22 15:14:00,30.1,12.0,30.41,SSW,202,0.0,-999.0,47,-99.99,,,0.00,weatherlink.com 1.10,2013-11-22 21:14:00,
2013-11-22 15:29:00,29.7,13.0,30.41,WSW,250,2.0,-999.0,50,-99.99,,,0.00,weatherlink.com 1.10,2013-11-22 21:29:00,
2013-11-22 15:44:00,29.5,13.0,30.41,South,188,0.0,-999.0,50,-99.99,,,0.00,weatherlink.com 1.10,2013-11-22 21:44:00,
2013-11-22 15:59:00,29.0,12.0,30.41,SW,219,3.0,-999.0,49,-99.99,,,0.00,weatherlink.com 1.10,2013-11-22 21:59:00,
2013-11-22 16:14:00,28.2,11.0,30.41,NW,306,2.0,-999.0,49,-99.99,,,0.00,weatherlink.com 1.10,2013-11-22 22:14:00,
2013-11-22 16:29:00,27.5,11.0,30.41,SW,231,1.0,-999.0,50,-99.99,,,0.00,weatherlink.com 1.10,2013-11-22 22:29:00,
2013-11-22 16:59:00,26.1,11.0,30.42,SSW,201,2.0,-999.0,53,-99.99,,,0.00,weatherlink.com 1.10,2013-11-22 22:59:00,
2013-11-22 17:14:00,25.7,11.0,30.42,West,260,2.0,-999.0,54,-99.99,,,0.00,weatherlink.com 1.10,2013-11-22 23:14:00,
2013-11-22 17:29:00,25.4,11.0,30.41,West,274,0.0,-999.0,54,-99.99,,,0.00,weatherlink.com 1.10,2013-11-22 23:29:00,
2013-11-22 17:44:00,25.0,11.0,30.41,West,261,0.0,-999.0,56,-99.99,,,0.00,weatherlink.com 1.10,2013-11-22 23:44:00,
2013-11-22 17:59:00,24.7,11.0,30.41,SW,232,0.0,-999.0,56,-99.99,,,0.00,weatherlink.com 1.10,2013-11-22 23:59:00,
2013-11-22 18:14:00,24.4,11.0,30.41,SW,220,0.0,-999.0,57,-99.99,,,0.00,weatherlink.com 1.10,2013-11-23 00:14:00,
2013-11-22 18:29:00,23.9,11.0,30.41,WSW,252,0.0,-999.0,58,-99.99,,,0.00,weatherlink.com 1.10,2013-11-23 00:29:00,
2013-11-22 18:44:00,23.6,11.0,30.41,SW,223,0.0,-999.0,59,-99.99,,,0.00,weatherlink.com 1.10,2013-11-23 00:44:00,
2013-11-22 18:59:00,23.3,11.0,30.41,West,259,0.0,-999.0,60,-99.99,,,0.00,weatherlink.com 1.10,2013-11-23 00:59:00,
2013-11-22 19:15:00,23.0,11.0,30.41,West,271,0.0,-999.0,61,-99.99,,,0.00,weatherlink.com 1.10,2013-11-23 01:15:00,
2013-11-22 19:30:00,22.7,11.0,30.42,NNE,19,0.0,-999.0,62,-99.99,,,0.00,weatherlink.com 1.10,2013-11-23 01:30:00,
2013-11-22 19:45:00,22.4,12.0,30.43,NNE,19,0.0,-999.0,65,-99.99,,,0.00,weatherlink.com 1.10,2013-11-23 01:45:00,
2013-11-22 20:00:00,22.1,12.0,30.42,WNW,293,0.0,-999.0,65,-99.99,,,0.00,weatherlink.com 1.10,2013-11-23 02:00:00,
2013-11-22 20:15:00,21.8,12.0,30.42,SW,225,0.0,-999.0,66,-99.99,,,0.00,weatherlink.com 1.10,2013-11-23 02:15:00,
2013-11-22 20:30:00,21.9,12.0,30.43,West,275,0.0,-999.0,67,-99.99,,,0.00,weatherlink.com 1.10,2013-11-23 02:30:00,
2013-11-22 20:45:00,22.2,13.0,30.43,North,350,1.0,-999.0,68,-99.99,,,0.00,weatherlink.com 1.10,2013-11-23 02:45:00,
2013-11-22 21:00:00,22.9,15.0,30.44,NW,321,1.0,-999.0,73,-99.99,,,0.00,weatherlink.com 1.10,2013-11-23 03:00:00,
2013-11-22 21:15:00,23.2,17.0,30.44,North,355,0.0,-999.0,77,-99.99,,,0.00,weatherlink.com 1.10,2013-11-23 03:15:00,
2013-11-22 21:30:00,23.2,17.0,30.44,North,5,4.0,-999.0,77,-99.99,,,0.00,weatherlink.com 1.10,2013-11-23 03:30:00,
2013-11-22 21:45:00,23.2,17.0,30.44,NE,44,4.0,-999.0,77,-99.99,,,0.00,weatherlink.com 1.10,2013-11-23 03:45:00,
2013-11-22 22:00:00,23.0,16.0,30.44,WNW,295,1.0,-999.0,75,-99.99,,,0.00,weatherlink.com 1.10,2013-11-23 04:00:00,
2013-11-22 22:15:00,22.9,14.0,30.44,ENE,57,1.0,-999.0,69,-99.99,,,0.00,weatherlink.com 1.10,2013-11-23 04:15:00,
2013-11-22 22:30:00,22.4,13.0,30.45,WNW,292,6.0,-999.0,68,-99.99,,,0.00,weatherlink.com 1.10,2013-11-23 04:30:00,
2013-11-22 22:45:00,22.1,11.0,30.46,NNW,341,2.0,-999.0,63,-99.99,,,0.00,weatherlink.com 1.10,2013-11-23 04:45:00,
2013-11-22 23:00:00,21.4,10.0,30.47,NNW,331,3.0,-999.0,61,-99.99,,,0.00,weatherlink.com 1.10,2013-11-23 05:00:00,
2013-11-22 23:15:00,20.5,8.0,30.48,North,5,3.0,-999.0,58,-99.99,,,0.00,weatherlink.com 1.10,2013-11-23 05:15:00,
2013-11-22 23:30:00,19.7,7.0,30.49,North,9,6.0,-999.0,57,-99.99,,,0.00,weatherlink.com 1.10,2013-11-23 05:30:00,
2013-11-22 23:45:00,19.2,7.0,30.49,North,5,0.0,-999.0,59,-99.99,,,0.00,weatherlink.com 1.10,2013-11-23 05:45:00,